This is the latest recevied weather packets stored in our database for station/object IZ7EXI-13. If no packets are shown the sender has not sent any weather packets the latest 1 day(s).
| Time | Temp. | Humidity | Pressure | Rain* | Wind** | Luminosity | Snow |
|---|---|---|---|---|---|---|---|
| 1778086978 | 25.56° C | 48% | 1014.7 hPa | - | - | - | - |
| 1778084277 | 29.44° C | 40% | 1014.6 hPa | - | - | - | - |
| 1778083377 | 29.44° C | 41% | 1014.6 hPa | - | - | - | - |
| 1778080708 | 30° C | 40% | 1014.8 hPa | - | - | - | - |
| 1778080676 | 30° C | 40% | 1014.8 hPa | - | - | - | - |
| 1778079776 | 28.89° C | 42% | 1014.8 hPa | - | - | - | - |
| 1778077112 | 27.22° C | 44% | 1015.1 hPa | - | - | - | - |
| 1778076201 | 27.78° C | 43% | 1015 hPa | - | - | - | - |
| 1778074407 | 27.78° C | 40% | 1015.4 hPa | - | - | - | - |
| 1778074374 | 27.78° C | 40% | 1015.4 hPa | - | - | - | - |
| 1778072606 | 27.78° C | 41% | 1015.7 hPa | - | - | - | - |
| 1778070808 | 26.67° C | 44% | 1016.1 hPa | - | - | - | - |
| 1778070773 | 26.67° C | 44% | 1016.1 hPa | - | - | - | - |
| 1778066271 | 26.11° C | 48% | 1016.4 hPa | - | - | - | - |
| 1778063596 | 25° C | 53% | 1016.4 hPa | - | - | - | - |
| 1778062896 | 24.44° C | 56% | 1016.5 hPa | - | - | - | - |
| 1778062670 | 24.44° C | 56% | 1016.5 hPa | - | - | - | - |
| 1778061817 | 25° C | 52% | 1016.8 hPa | - | - | - | - |
| 1778061806 | 25° C | 52% | 1016.8 hPa | - | - | - | - |
| 1778060903 | 24.44° C | 50% | 1016.9 hPa | - | - | - | - |
| 1778059967 | 24.44° C | 52% | 1017 hPa | - | - | - | - |
| 1778059067 | 23.89° C | 54% | 1017 hPa | - | - | - | - |
| 1778058167 | 23.33° C | 57% | 1017 hPa | - | - | - | - |
| 1778054566 | 23.33° C | 57% | 1016.8 hPa | - | - | - | - |
| 1778053662 | 23.33° C | 57% | 1016.7 hPa | - | - | - | - |
* Rain since midnight (hover to see other rain measurements)
** Current wind speed in m/s (hover to see current wind gust speed)